Time;durP1;ratioP1;P1;durP2;ratioP2;P2;SDS_P1;SDS_P2;PMS_P1;PMS_P2;Temp;Humidity;BMP_temperature;BMP_pressure;BME280_temperature;BME280_humidity;BME280_pressure;Samples;Min_cycle;Max_cycle;Signal;HPM_P1;HPM_P2
2022/07/20 00:01:02;;;;;;;33.15;17.00;;;;;;;;;;4966556;28;20403;-79
2022/07/20 00:03:28;;;;;;;28.60;17.02;;;;;;;;;;4965864;28;20043;-81
2022/07/20 00:05:54;;;;;;;31.17;17.85;;;;;;;;;;4966920;28;20039;-84
2022/07/20 00:11:19;;;;;;;32.33;17.77;;;;;;;;;;4967799;28;20046;-81
2022/07/20 00:11:20;;;;;;;29.75;17.88;;;;;;;;;;4965836;28;20042;-79
2022/07/20 00:13:50;;;;;;;34.05;18.45;;;;;;;;;;4967843;28;20060;-83
2022/07/20 00:16:15;;;;;;;33.65;17.63;;;;;;;;;;4982357;28;20030;-82
2022/07/20 00:18:41;;;;;;;43.08;24.13;;;;;;;;;;4968052;28;20022;-82
2022/07/20 00:21:06;;;;;;;31.35;18.48;;;;;;;;;;4965908;28;20038;-81
2022/07/20 00:23:31;;;;;;;30.75;17.98;;;;;;;;;;4978478;28;20035;-80
2022/07/20 00:25:57;;;;;;;31.25;16.73;;;;;;;;;;4969072;28;20027;-79
2022/07/20 00:28:22;;;;;;;31.33;16.83;;;;;;;;;;4970420;28;20025;-80
2022/07/20 00:30:47;;;;;;;30.67;17.63;;;;;;;;;;4967496;28;20025;-79
2022/07/20 00:33:13;;;;;;;29.70;16.92;;;;;;;;;;4969027;28;20038;-80
2022/07/20 00:35:38;;;;;;;33.42;17.75;;;;;;;;;;4968068;28;20034;-80
2022/07/20 00:38:03;;;;;;;29.10;17.00;;;;;;;;;;4968135;28;20034;-80
2022/07/20 00:40:29;;;;;;;37.40;17.10;;;;;;;;;;4967007;28;20050;-79
2022/07/20 00:42:54;;;;;;;30.30;16.88;;;;;;;;;;4971291;28;20018;-80
2022/07/20 00:45:20;;;;;;;33.20;16.38;;;;;;;;;;4965420;28;20041;-79
2022/07/20 00:47:45;;;;;;;31.15;16.95;;;;;;;;;;4960651;28;20658;-80
2022/07/20 00:50:10;;;;;;;26.35;15.20;;;;;;;;;;4959254;28;20586;-82
2022/07/20 00:52:36;;;;;;;28.38;16.98;;;;;;;;;;4974753;28;20038;-82
2022/07/20 00:55:03;;;;;;;28.85;15.77;;;;;;;;;;4971772;28;20108;-79
2022/07/20 00:57:29;;;;;;;29.08;16.95;;;;;;;;;;4969151;28;20053;-80
2022/07/20 00:59:54;;;;;;;35.85;18.27;;;;;;;;;;4970545;28;20522;-79
2022/07/20 01:02:19;;;;;;;31.33;17.35;;;;;;;;;;4967200;28;20520;-79
2022/07/20 01:04:45;;;;;;;31.08;18.15;;;;;;;;;;4968601;28;20516;-79
2022/07/20 01:07:10;;;;;;;35.35;17.75;;;;;;;;;;4977189;28;20739;-80
2022/07/20 01:09:35;;;;;;;37.05;19.58;;;;;;;;;;4967172;28;20055;-80
2022/07/20 01:12:01;;;;;;;34.53;19.48;;;;;;;;;;4967612;28;20045;-81
2022/07/20 01:14:26;;;;;;;39.33;20.73;;;;;;;;;;4979607;28;20043;-80
2022/07/20 01:16:51;;;;;;;37.97;20.45;;;;;;;;;;4966477;28;20041;-80
2022/07/20 01:19:17;;;;;;;48.33;21.17;;;;;;;;;;4961880;28;20025;-80
2022/07/20 01:21:43;;;;;;;35.38;20.15;;;;;;;;;;4962372;28;20051;-80
2022/07/20 01:24:10;;;;;;;40.45;21.58;;;;;;;;;;4967262;28;20050;-80
2022/07/20 01:26:37;;;;;;;35.03;20.45;;;;;;;;;;4963992;28;20410;-81
2022/07/20 01:29:03;;;;;;;40.80;21.15;;;;;;;;;;4968220;28;20050;-80
2022/07/20 01:31:29;;;;;;;37.22;20.33;;;;;;;;;;4965155;28;20035;-81
2022/07/20 01:33:54;;;;;;;43.80;20.95;;;;;;;;;;4966631;28;20027;-81
2022/07/20 01:36:19;;;;;;;39.72;20.80;;;;;;;;;;4962009;28;20058;-82
2022/07/20 01:38:45;;;;;;;37.47;20.55;;;;;;;;;;4953957;28;20463;-82
2022/07/20 01:41:10;;;;;;;36.00;20.58;;;;;;;;;;4972243;28;20514;-82
2022/07/20 01:43:35;;;;;;;34.35;18.65;;;;;;;;;;4971974;28;20449;-81
2022/07/20 01:46:01;;;;;;;36.00;19.67;;;;;;;;;;4976217;28;20494;-82
2022/07/20 01:48:26;;;;;;;36.05;19.73;;;;;;;;;;4966683;28;20450;-82
2022/07/20 01:50:51;;;;;;;33.35;18.77;;;;;;;;;;4967293;28;20522;-81
2022/07/20 01:53:17;;;;;;;37.63;20.80;;;;;;;;;;4965672;28;20616;-81
2022/07/20 01:55:42;;;;;;;37.28;20.67;;;;;;;;;;4974461;28;20439;-81
2022/07/20 01:58:07;;;;;;;39.28;21.13;;;;;;;;;;4965489;28;20084;-81
2022/07/20 02:00:33;;;;;;;39.78;21.05;;;;;;;;;;4965113;28;20027;-81
2022/07/20 02:02:58;;;;;;;38.70;21.40;;;;;;;;;;4968006;28;20122;-80
2022/07/20 02:05:23;;;;;;;39.80;21.20;;;;;;;;;;4965781;28;20031;-81
2022/07/20 02:07:49;;;;;;;41.80;21.30;;;;;;;;;;4967094;28;20050;-80
2022/07/20 02:10:14;;;;;;;39.33;21.55;;;;;;;;;;4982176;28;20027;-80
2022/07/20 02:12:40;;;;;;;39.90;20.77;;;;;;;;;;4961830;28;20604;-80
2022/07/20 02:15:07;;;;;;;49.22;22.27;;;;;;;;;;4967192;28;20090;-81
2022/07/20 02:17:33;;;;;;;43.78;20.95;;;;;;;;;;4957329;28;20052;-81
2022/07/20 02:19:58;;;;;;;41.17;20.45;;;;;;;;;;4958471;28;20646;-80
2022/07/20 02:22:24;;;;;;;37.38;21.00;;;;;;;;;;4961416;28;20707;-81
2022/07/20 02:24:49;;;;;;;43.92;21.73;;;;;;;;;;4961033;28;20596;-80
2022/07/20 02:27:15;;;;;;;42.15;20.88;;;;;;;;;;4962917;28;20054;-80
2022/07/20 02:29:40;;;;;;;42.80;20.08;;;;;;;;;;4963630;28;20662;-81
2022/07/20 02:32:06;;;;;;;37.60;20.38;;;;;;;;;;4959821;28;20031;-80
2022/07/20 02:34:31;;;;;;;39.33;20.85;;;;;;;;;;4960431;28;20030;-81
2022/07/20 02:36:56;;;;;;;40.35;20.40;;;;;;;;;;4965883;28;20053;-81
2022/07/20 02:39:22;;;;;;;43.60;20.58;;;;;;;;;;4977630;28;20581;-82
2022/07/20 02:41:47;;;;;;;38.30;20.05;;;;;;;;;;4981943;28;20023;-81
2022/07/20 02:44:12;;;;;;;36.47;20.15;;;;;;;;;;4990352;28;20027;-80
2022/07/20 02:46:38;;;;;;;35.28;19.85;;;;;;;;;;4968012;28;20045;-81
2022/07/20 02:49:04;;;;;;;36.33;19.80;;;;;;;;;;4979086;28;20026;-81
2022/07/20 02:51:30;;;;;;;34.80;18.67;;;;;;;;;;4954251;28;20039;-82
2022/07/20 02:53:55;;;;;;;35.33;18.52;;;;;;;;;;4955512;28;20039;-82
2022/07/20 02:56:20;;;;;;;38.70;18.98;;;;;;;;;;4963588;28;20046;-82
2022/07/20 02:58:46;;;;;;;37.38;19.40;;;;;;;;;;4960176;28;20046;-82
2022/07/20 03:01:11;;;;;;;34.67;18.85;;;;;;;;;;4962554;28;20073;-82
2022/07/20 03:03:36;;;;;;;30.45;17.83;;;;;;;;;;4961672;28;20399;-82
2022/07/20 03:06:02;;;;;;;35.10;19.70;;;;;;;;;;4963020;28;20054;-82
2022/07/20 03:08:27;;;;;;;34.63;18.95;;;;;;;;;;4963144;28;20077;-82
2022/07/20 03:10:53;;;;;;;38.05;19.73;;;;;;;;;;4976642;28;20455;-81
2022/07/20 03:13:18;;;;;;;35.88;18.58;;;;;;;;;;4964918;28;20434;-81
2022/07/20 03:15:43;;;;;;;36.42;18.63;;;;;;;;;;4963403;28;20462;-82
2022/07/20 03:18:09;;;;;;;34.33;18.52;;;;;;;;;;4963565;28;20078;-82
2022/07/20 03:20:34;;;;;;;40.10;18.80;;;;;;;;;;4962331;28;20058;-81
2022/07/20 03:23:01;;;;;;;35.55;18.23;;;;;;;;;;4965558;28;20094;-82
2022/07/20 03:25:26;;;;;;;33.75;17.58;;;;;;;;;;4961602;28;20387;-82
2022/07/20 03:27:53;;;;;;;27.92;17.05;;;;;;;;;;4963392;28;20490;-82
2022/07/20 03:30:19;;;;;;;41.83;18.23;;;;;;;;;;4959772;28;20050;-82
2022/07/20 03:32:44;;;;;;;31.70;17.05;;;;;;;;;;4956609;28;20027;-82
2022/07/20 03:35:09;;;;;;;32.67;17.77;;;;;;;;;;4980152;28;20042;-82
2022/07/20 03:37:35;;;;;;;27.92;17.13;;;;;;;;;;4958568;28;20027;-82
2022/07/20 03:40:01;;;;;;;30.70;17.33;;;;;;;;;;4964064;28;20614;-82
2022/07/20 03:42:26;;;;;;;31.98;17.20;;;;;;;;;;4962731;28;20031;-83
2022/07/20 03:44:51;;;;;;;32.83;18.48;;;;;;;;;;4969471;28;20041;-82
2022/07/20 03:47:17;;;;;;;34.22;17.63;;;;;;;;;;4962366;28;20117;-83
2022/07/20 03:49:42;;;;;;;32.88;17.55;;;;;;;;;;4965324;28;20110;-82
2022/07/20 03:52:12;;;;;;;32.78;17.45;;;;;;;;;;4968842;28;20049;-83
2022/07/20 03:54:38;;;;;;;34.55;17.42;;;;;;;;;;4967026;28;20031;-82
2022/07/20 03:57:03;;;;;;;29.90;17.50;;;;;;;;;;4963968;28;20774;-82
2022/07/20 03:59:29;;;;;;;32.35;17.05;;;;;;;;;;4969242;28;20118;-82
2022/07/20 04:01:54;;;;;;;31.23;17.83;;;;;;;;;;4964766;28;20030;-82
2022/07/20 04:04:19;;;;;;;28.15;16.15;;;;;;;;;;4967843;28;20031;-82
2022/07/20 04:06:45;;;;;;;29.17;16.95;;;;;;;;;;4966569;28;21234;-82
2022/07/20 04:09:10;;;;;;;35.80;17.15;;;;;;;;;;4980032;28;20406;-83
2022/07/20 04:11:35;;;;;;;30.92;17.13;;;;;;;;;;4966730;28;20119;-81
2022/07/20 04:14:01;;;;;;;30.02;15.90;;;;;;;;;;4963422;28;20035;-83
2022/07/20 04:16:26;;;;;;;34.15;17.35;;;;;;;;;;4968562;28;20162;-83
2022/07/20 04:18:51;;;;;;;32.40;16.20;;;;;;;;;;4960463;28;20026;-83
2022/07/20 04:21:17;;;;;;;26.75;16.15;;;;;;;;;;4968407;28;20035;-83
2022/07/20 04:23:43;;;;;;;29.58;16.50;;;;;;;;;;4956602;28;20126;-83
2022/07/20 04:26:08;;;;;;;33.72;17.15;;;;;;;;;;4976375;28;20077;-83
2022/07/20 04:28:33;;;;;;;30.42;16.75;;;;;;;;;;4964315;28;20019;-82
2022/07/20 04:30:59;;;;;;;30.00;17.00;;;;;;;;;;4964614;28;20031;-82
2022/07/20 04:33:24;;;;;;;32.13;17.10;;;;;;;;;;4965467;28;20031;-82
2022/07/20 04:35:49;;;;;;;33.10;17.50;;;;;;;;;;4966442;28;20046;-82
2022/07/20 04:38:17;;;;;;;29.45;17.48;;;;;;;;;;4968037;28;20027;-82
2022/07/20 04:40:43;;;;;;;32.38;17.73;;;;;;;;;;4964165;28;20062;-83
2022/07/20 04:43:08;;;;;;;29.27;15.82;;;;;;;;;;4965957;28;20023;-82
2022/07/20 04:45:34;;;;;;;30.83;16.33;;;;;;;;;;4963403;28;20046;-83
2022/07/20 04:47:59;;;;;;;32.85;16.00;;;;;;;;;;4965614;28;20027;-82
2022/07/20 04:50:25;;;;;;;27.60;16.00;;;;;;;;;;4964912;28;20031;-82
2022/07/20 04:52:50;;;;;;;27.80;15.90;;;;;;;;;;4965135;28;20185;-80
2022/07/20 04:55:16;;;;;;;27.90;15.13;;;;;;;;;;4978791;28;20770;-80
2022/07/20 04:57:41;;;;;;;29.70;15.80;;;;;;;;;;4967761;28;20049;-80
2022/07/20 05:00:08;;;;;;;25.88;14.45;;;;;;;;;;4966677;28;20530;-81
2022/07/20 05:02:33;;;;;;;27.70;14.90;;;;;;;;;;4967987;28;20829;-79
2022/07/20 05:04:59;;;;;;;29.15;13.98;;;;;;;;;;4968199;28;20070;-80
2022/07/20 05:07:24;;;;;;;26.10;13.80;;;;;;;;;;4963855;28;20019;-80
2022/07/20 05:09:49;;;;;;;21.02;13.38;;;;;;;;;;4967063;28;20054;-81
2022/07/20 05:12:15;;;;;;;21.60;12.30;;;;;;;;;;4960252;28;20090;-80
2022/07/20 05:14:40;;;;;;;23.27;13.00;;;;;;;;;;4966689;28;20552;-81
2022/07/20 05:17:06;;;;;;;21.13;12.10;;;;;;;;;;4958209;28;20027;-82
2022/07/20 05:19:31;;;;;;;25.40;12.35;;;;;;;;;;4963604;28;20034;-81
2022/07/20 05:21:57;;;;;;;22.48;12.45;;;;;;;;;;4967269;28;20050;-80
2022/07/20 05:24:23;;;;;;;20.30;12.45;;;;;;;;;;4963156;28;20049;-81
2022/07/20 05:26:48;;;;;;;18.33;12.20;;;;;;;;;;4961522;28;20039;-82
2022/07/20 05:29:13;;;;;;;19.05;11.68;;;;;;;;;;4977676;28;20038;-79
2022/07/20 05:31:39;;;;;;;22.05;11.98;;;;;;;;;;4964629;28;20042;-80
2022/07/20 05:34:04;;;;;;;22.60;12.10;;;;;;;;;;4981455;28;20014;-81
2022/07/20 05:36:29;;;;;;;21.50;12.60;;;;;;;;;;4960936;28;20443;-85
2022/07/20 05:38:55;;;;;;;20.40;11.65;;;;;;;;;;4964125;28;20170;-82
2022/07/20 05:41:20;;;;;;;24.33;11.90;;;;;;;;;;4984090;28;20133;-82
2022/07/20 05:43:45;;;;;;;22.55;13.05;;;;;;;;;;4967997;28;20031;-84
2022/07/20 05:46:11;;;;;;;23.50;12.05;;;;;;;;;;4974845;28;20120;-84
2022/07/20 05:48:36;;;;;;;20.73;11.90;;;;;;;;;;4968037;28;20178;-80
2022/07/20 05:51:05;;;;;;;29.52;11.98;;;;;;;;;;4967920;28;20573;-82
2022/07/20 05:53:32;;;;;;;24.42;12.70;;;;;;;;;;4968739;28;20099;-84
2022/07/20 05:55:58;;;;;;;23.63;12.07;;;;;;;;;;4976410;28;20157;-81
2022/07/20 05:58:26;;;;;;;20.95;12.60;;;;;;;;;;4971308;28;20038;-82
2022/07/20 06:00:51;;;;;;;20.58;11.63;;;;;;;;;;4967998;28;20030;-81
2022/07/20 06:03:17;;;;;;;21.90;12.23;;;;;;;;;;4968684;28;20062;-80
2022/07/20 06:05:42;;;;;;;21.88;12.68;;;;;;;;;;4967478;28;20044;-81
2022/07/20 06:08:07;;;;;;;21.58;11.88;;;;;;;;;;4958420;28;20050;-80
2022/07/20 06:10:34;;;;;;;20.50;11.23;;;;;;;;;;4965090;28;20018;-80
2022/07/20 06:13:01;;;;;;;21.75;13.20;;;;;;;;;;4967766;28;20037;-81
2022/07/20 06:15:26;;;;;;;18.38;10.52;;;;;;;;;;4962662;28;20035;-81
2022/07/20 06:17:53;;;;;;;22.48;11.80;;;;;;;;;;4961817;28;20106;-81
2022/07/20 06:20:19;;;;;;;25.38;13.10;;;;;;;;;;4960845;28;20039;-80
2022/07/20 06:22:44;;;;;;;19.60;11.75;;;;;;;;;;4964641;28;20034;-81
2022/07/20 06:25:12;;;;;;;22.27;11.90;;;;;;;;;;4961625;28;20383;-82
2022/07/20 06:27:38;;;;;;;23.42;11.35;;;;;;;;;;4961057;28;20061;-82
2022/07/20 06:30:05;;;;;;;21.90;11.95;;;;;;;;;;4966800;28;20062;-82
2022/07/20 06:32:31;;;;;;;20.98;11.25;;;;;;;;;;4970129;28;20175;-84
2022/07/20 06:34:56;;;;;;;23.10;11.80;;;;;;;;;;4965809;28;20665;-84
2022/07/20 06:37:22;;;;;;;21.23;11.55;;;;;;;;;;4969045;28;20022;-83
2022/07/20 06:39:47;;;;;;;20.00;11.35;;;;;;;;;;4980267;28;20066;-84
2022/07/20 06:42:13;;;;;;;20.30;11.07;;;;;;;;;;4990222;28;20033;-84
2022/07/20 06:44:39;;;;;;;21.40;10.63;;;;;;;;;;4978602;28;20062;-83
2022/07/20 06:47:04;;;;;;;19.90;11.77;;;;;;;;;;4970087;28;20044;-82
2022/07/20 06:49:30;;;;;;;22.00;12.40;;;;;;;;;;4974395;28;20041;-82
2022/07/20 06:51:56;;;;;;;23.23;11.07;;;;;;;;;;4965695;28;20158;-85
2022/07/20 06:54:21;;;;;;;23.02;12.05;;;;;;;;;;4970212;28;20082;-84
2022/07/20 06:56:47;;;;;;;21.15;11.63;;;;;;;;;;4969450;28;20425;-84
2022/07/20 06:59:12;;;;;;;21.48;12.55;;;;;;;;;;4968251;28;20031;-85
2022/07/20 07:01:38;;;;;;;19.08;11.68;;;;;;;;;;4967125;28;20023;-84
2022/07/20 07:04:04;;;;;;;21.00;12.65;;;;;;;;;;4964350;28;20019;-84
2022/07/20 07:06:32;;;;;;;18.42;10.65;;;;;;;;;;4961002;28;20185;-85
2022/07/20 07:08:58;;;;;;;20.88;11.68;;;;;;;;;;4959188;28;20035;-84
2022/07/20 07:11:23;;;;;;;20.23;11.00;;;;;;;;;;4962994;28;20037;-84
2022/07/20 07:13:49;;;;;;;20.30;10.32;;;;;;;;;;4964802;28;20659;-83
2022/07/20 07:16:14;;;;;;;19.70;11.13;;;;;;;;;;4964741;28;20019;-83
2022/07/20 07:18:40;;;;;;;21.33;11.77;;;;;;;;;;4966260;28;20053;-83
2022/07/20 07:21:05;;;;;;;19.33;10.30;;;;;;;;;;4963395;28;20062;-83
2022/07/20 07:23:30;;;;;;;19.75;10.98;;;;;;;;;;4966940;28;20031;-84
2022/07/20 07:25:56;;;;;;;22.13;10.55;;;;;;;;;;4963625;28;20850;-83
2022/07/20 07:28:21;;;;;;;22.65;10.93;;;;;;;;;;4960155;28;20030;-82
2022/07/20 07:30:49;;;;;;;21.90;11.25;;;;;;;;;;4969445;28;20034;-82
2022/07/20 07:33:14;;;;;;;18.35;10.45;;;;;;;;;;4959292;28;20138;-82
2022/07/20 07:35:40;;;;;;;19.02;10.60;;;;;;;;;;4970430;28;20145;-82
2022/07/20 07:38:05;;;;;;;17.55;9.88;;;;;;;;;;4968030;28;20122;-82
2022/07/20 07:40:30;;;;;;;18.52;9.68;;;;;;;;;;4961924;28;20026;-82
2022/07/20 07:42:56;;;;;;;16.33;9.02;;;;;;;;;;4973854;28;20034;-82
2022/07/20 07:45:21;;;;;;;15.02;9.05;;;;;;;;;;4980060;28;20035;-81
2022/07/20 07:47:47;;;;;;;13.43;8.77;;;;;;;;;;4967108;28;20042;-81
2022/07/20 07:50:12;;;;;;;17.48;8.88;;;;;;;;;;4969444;28;20043;-81
2022/07/20 07:52:38;;;;;;;14.57;8.52;;;;;;;;;;4968530;28;20034;-81
2022/07/20 07:55:04;;;;;;;16.17;8.48;;;;;;;;;;4969086;28;20019;-81
2022/07/20 07:57:29;;;;;;;17.25;8.63;;;;;;;;;;4964825;28;20077;-81
2022/07/20 07:59:55;;;;;;;14.32;8.20;;;;;;;;;;4965825;28;20149;-80
2022/07/20 08:02:20;;;;;;;16.33;7.97;;;;;;;;;;4967762;28;20105;-80
2022/07/20 08:04:46;;;;;;;17.38;7.82;;;;;;;;;;4964778;28;20454;-80
2022/07/20 08:07:11;;;;;;;15.00;7.68;;;;;;;;;;4964585;28;20034;-80
2022/07/20 08:09:36;;;;;;;14.98;7.90;;;;;;;;;;4962670;28;20042;-81
2022/07/20 08:12:03;;;;;;;19.23;8.18;;;;;;;;;;4957885;28;20066;-80
2022/07/20 08:14:29;;;;;;;14.52;8.02;;;;;;;;;;4956683;28;20043;-81
2022/07/20 08:16:54;;;;;;;17.90;8.23;;;;;;;;;;4960282;28;20038;-81
2022/07/20 08:19:19;;;;;;;11.68;6.78;;;;;;;;;;4961175;28;20422;-80
2022/07/20 08:21:45;;;;;;;12.75;7.80;;;;;;;;;;4960035;28;20083;-81
2022/07/20 08:24:11;;;;;;;13.05;7.75;;;;;;;;;;4963504;28;20042;-80
2022/07/20 08:26:36;;;;;;;12.27;7.28;;;;;;;;;;4976011;28;20161;-80
2022/07/20 08:29:02;;;;;;;11.95;7.32;;;;;;;;;;4975971;28;20130;-80
2022/07/20 08:31:27;;;;;;;10.73;7.53;;;;;;;;;;4960952;28;20031;-80
2022/07/20 08:33:52;;;;;;;14.48;8.05;;;;;;;;;;4960193;28;20050;-80
2022/07/20 08:36:18;;;;;;;14.20;8.07;;;;;;;;;;4959008;28;20122;-83
2022/07/20 08:38:43;;;;;;;13.02;7.53;;;;;;;;;;4966667;28;20058;-82
2022/07/20 08:41:09;;;;;;;20.02;8.30;;;;;;;;;;4965064;28;20639;-84
2022/07/20 08:43:34;;;;;;;13.02;8.48;;;;;;;;;;4983940;28;20026;-82
2022/07/20 08:46:02;;;;;;;13.27;7.18;;;;;;;;;;4967748;28;20501;-83
2022/07/20 08:48:27;;;;;;;13.77;7.55;;;;;;;;;;4962767;28;20094;-83
2022/07/20 08:50:53;;;;;;;11.80;6.40;;;;;;;;;;4968098;28;20038;-84
2022/07/20 08:53:19;;;;;;;15.05;7.68;;;;;;;;;;4966119;28;20047;-84
2022/07/20 08:55:45;;;;;;;15.30;7.00;;;;;;;;;;4972786;28;20046;-82
2022/07/20 08:58:11;;;;;;;13.82;7.75;;;;;;;;;;4963416;28;20903;-82
2022/07/20 09:00:38;;;;;;;18.65;8.02;;;;;;;;;;4965911;28;20081;-83
2022/07/20 09:03:05;;;;;;;15.27;8.65;;;;;;;;;;4967752;28;20110;-84
2022/07/20 09:05:36;;;;;;;15.55;9.10;;;;;;;;;;4974790;28;20050;-84
2022/07/20 09:08:03;;;;;;;18.00;8.73;;;;;;;;;;4967761;28;20039;-83
2022/07/20 09:10:34;;;;;;;17.20;8.52;;;;;;;;;;4963935;28;20035;-84
2022/07/20 09:13:05;;;;;;;16.95;8.68;;;;;;;;;;4965381;28;20029;-84
2022/07/20 09:15:38;;;;;;;14.80;8.90;;;;;;;;;;4980305;28;20047;-84
2022/07/20 09:18:16;;;;;;;15.95;7.97;;;;;;;;;;4963690;28;20035;-84
2022/07/20 09:20:49;;;;;;;14.23;8.52;;;;;;;;;;4962922;28;20073;-84
2022/07/20 09:23:18;;;;;;;11.77;8.02;;;;;;;;;;4966294;28;20101;-83
2022/07/20 09:26:04;;;;;;;12.50;8.30;;;;;;;;;;4976942;28;20422;-83
2022/07/20 09:28:47;;;;;;;13.43;8.07;;;;;;;;;;4977139;28;20014;-83
2022/07/20 09:31:27;;;;;;;15.35;8.57;;;;;;;;;;4964683;28;20027;-83
2022/07/20 09:33:53;;;;;;;13.82;8.52;;;;;;;;;;4977520;28;20042;-83
2022/07/20 09:36:20;;;;;;;14.00;8.27;;;;;;;;;;4964012;28;20042;-83
2022/07/20 09:38:45;;;;;;;17.80;8.32;;;;;;;;;;4967001;28;20050;-84
2022/07/20 09:41:21;;;;;;;14.70;7.93;;;;;;;;;;4960766;28;20045;-84
2022/07/20 09:43:47;;;;;;;14.50;8.88;;;;;;;;;;4966742;28;20097;-83
2022/07/20 09:46:22;;;;;;;12.82;8.20;;;;;;;;;;4966998;28;20022;-82
2022/07/20 09:48:50;;;;;;;14.23;7.93;;;;;;;;;;4965494;28;20178;-83
2022/07/20 09:51:18;;;;;;;14.60;8.15;;;;;;;;;;4965251;28;20033;-82
2022/07/20 09:53:44;;;;;;;12.20;7.45;;;;;;;;;;4977764;28;20747;-82
2022/07/20 09:56:10;;;;;;;11.80;7.72;;;;;;;;;;4964412;28;20055;-82
2022/07/20 09:58:37;;;;;;;14.68;7.65;;;;;;;;;;4965685;28;20498;-82
2022/07/20 10:01:03;;;;;;;16.60;7.78;;;;;;;;;;4968091;28;20026;-82
2022/07/20 10:03:29;;;;;;;17.38;8.95;;;;;;;;;;4966290;28;20038;-82
2022/07/20 10:05:55;;;;;;;13.32;8.25;;;;;;;;;;4964509;28;20141;-82
2022/07/20 10:08:21;;;;;;;12.85;8.13;;;;;;;;;;4965060;28;20546;-82
2022/07/20 10:10:46;;;;;;;15.18;7.85;;;;;;;;;;4979418;28;20031;-82
2022/07/20 10:13:12;;;;;;;14.25;8.98;;;;;;;;;;4982317;28;20030;-81
2022/07/20 10:15:59;;;;;;;14.77;8.43;;;;;;;;;;4962960;28;20051;-82
2022/07/20 10:18:25;;;;;;;15.05;8.85;;;;;;;;;;4979761;28;20189;-84
2022/07/20 10:20:50;;;;;;;14.70;8.68;;;;;;;;;;4962383;28;20118;-84
2022/07/20 10:23:16;;;;;;;15.25;9.02;;;;;;;;;;4963479;28;20122;-89
2022/07/20 10:25:46;;;;;;;15.70;9.15;;;;;;;;;;4964181;28;22532;-84
2022/07/20 10:28:34;;;;;;;16.35;8.45;;;;;;;;;;4969630;28;20049;-85
2022/07/20 10:31:08;;;;;;;12.40;8.50;;;;;;;;;;4959717;28;20586;-83
2022/07/20 10:33:35;;;;;;;13.93;8.75;;;;;;;;;;4962831;28;20035;-84
2022/07/20 10:38:54;;;;;;;15.38;8.55;;;;;;;;;;4986415;28;20104;-87
2022/07/20 10:41:32;;;;;;;16.88;8.55;;;;;;;;;;4989535;28;20023;-85
2022/07/20 10:44:22;;;;;;;12.20;8.60;;;;;;;;;;4973073;28;20567;-85
2022/07/20 10:46:49;;;;;;;16.33;8.50;;;;;;;;;;4964016;28;20506;-86
2022/07/20 10:49:15;;;;;;;13.55;8.48;;;;;;;;;;4974770;28;20521;-84
2022/07/20 10:51:41;;;;;;;17.13;8.77;;;;;;;;;;4964069;28;20061;-84
2022/07/20 10:54:31;;;;;;;15.20;8.85;;;;;;;;;;4969630;28;20077;-86
2022/07/20 10:57:01;;;;;;;15.18;9.45;;;;;;;;;;4982966;28;20113;-82
2022/07/20 10:59:27;;;;;;;14.82;9.30;;;;;;;;;;4969244;28;20050;-83
2022/07/20 11:01:52;;;;;;;17.45;9.93;;;;;;;;;;4968332;28;20101;-83
2022/07/20 11:04:21;;;;;;;16.52;8.63;;;;;;;;;;4968640;28;20030;-81
2022/07/20 11:06:47;;;;;;;18.40;9.55;;;;;;;;;;4964420;28;20035;-82
2022/07/20 11:09:12;;;;;;;15.20;8.98;;;;;;;;;;4980901;28;20040;-81
2022/07/20 11:11:38;;;;;;;18.58;10.52;;;;;;;;;;4967144;28;20063;-82
2022/07/20 11:14:05;;;;;;;18.15;9.10;;;;;;;;;;4965928;28;20054;-81
2022/07/20 11:16:34;;;;;;;16.35;9.48;;;;;;;;;;4966885;28;20034;-82
2022/07/20 11:19:02;;;;;;;18.30;9.55;;;;;;;;;;4967214;28;20037;-82
2022/07/20 11:21:38;;;;;;;19.15;9.43;;;;;;;;;;4965101;28;20072;-82
2022/07/20 11:24:19;;;;;;;18.42;9.80;;;;;;;;;;4961932;28;20035;-81
2022/07/20 11:26:44;;;;;;;17.77;9.88;;;;;;;;;;4960530;28;20035;-81
2022/07/20 11:29:13;;;;;;;15.20;9.85;;;;;;;;;;4964696;28;20027;-81
2022/07/20 11:31:39;;;;;;;17.75;10.23;;;;;;;;;;4981730;28;20532;-81
2022/07/20 11:34:05;;;;;;;21.77;10.38;;;;;;;;;;4965347;28;20018;-81
2022/07/20 11:36:34;;;;;;;19.73;10.60;;;;;;;;;;4989504;28;20198;-81
2022/07/20 11:39:06;;;;;;;17.88;9.88;;;;;;;;;;4970132;28;20101;-81
2022/07/20 11:41:34;;;;;;;17.40;10.05;;;;;;;;;;4970210;28;20588;-81
2022/07/20 11:44:01;;;;;;;14.95;9.13;;;;;;;;;;4968655;28;20035;-81
2022/07/20 11:46:27;;;;;;;18.02;9.73;;;;;;;;;;4967967;28;20027;-82
2022/07/20 11:48:55;;;;;;;17.55;9.75;;;;;;;;;;4962883;28;20061;-82
2022/07/20 11:51:21;;;;;;;18.02;10.18;;;;;;;;;;4964670;28;20692;-82
2022/07/20 11:53:47;;;;;;;14.05;9.52;;;;;;;;;;4960550;28;20027;-81
2022/07/20 11:56:19;;;;;;;16.70;10.30;;;;;;;;;;4960187;28;20050;-81
2022/07/20 11:58:46;;;;;;;19.30;10.30;;;;;;;;;;4966597;28;20038;-81
2022/07/20 12:01:18;;;;;;;16.27;9.73;;;;;;;;;;4969233;28;20023;-81
2022/07/20 12:03:48;;;;;;;18.13;9.48;;;;;;;;;;4964875;28;20058;-82
2022/07/20 12:06:15;;;;;;;17.02;9.60;;;;;;;;;;4967511;28;20514;-81
2022/07/20 12:08:41;;;;;;;22.75;10.25;;;;;;;;;;4965999;28;20506;-81
2022/07/20 12:11:08;;;;;;;17.70;9.50;;;;;;;;;;4980192;28;20027;-82
2022/07/20 12:13:50;;;;;;;15.77;9.27;;;;;;;;;;4967742;28;20030;-82
2022/07/20 12:16:17;;;;;;;18.50;10.20;;;;;;;;;;4966995;28;20018;-82
2022/07/20 12:18:51;;;;;;;18.30;9.98;;;;;;;;;;4983276;28;20093;-82
2022/07/20 12:21:25;;;;;;;19.95;10.18;;;;;;;;;;4967338;28;20027;-82
2022/07/20 12:23:52;;;;;;;14.90;9.07;;;;;;;;;;4967505;28;20034;-83
2022/07/20 12:26:25;;;;;;;18.73;10.43;;;;;;;;;;4968744;28;20522;-82
2022/07/20 12:28:51;;;;;;;17.95;10.45;;;;;;;;;;4968493;28;20094;-83
2022/07/20 12:31:19;;;;;;;18.05;10.30;;;;;;;;;;4966037;28;20566;-83
2022/07/20 12:34:04;;;;;;;15.00;9.13;;;;;;;;;;4980715;28;20581;-83
2022/07/20 12:36:35;;;;;;;16.27;9.60;;;;;;;;;;4965515;28;20053;-84
2022/07/20 12:39:02;;;;;;;17.98;10.07;;;;;;;;;;4964795;28;20058;-83
2022/07/20 12:41:28;;;;;;;16.40;9.82;;;;;;;;;;4973121;28;20042;-84
2022/07/20 12:43:53;;;;;;;17.63;10.15;;;;;;;;;;4972297;28;20046;-83
2022/07/20 12:46:19;;;;;;;15.27;9.57;;;;;;;;;;4969594;28;20078;-83
2022/07/20 12:48:48;;;;;;;15.70;10.05;;;;;;;;;;4984376;28;20030;-82
2022/07/20 12:51:14;;;;;;;15.48;10.18;;;;;;;;;;4965521;28;20133;-83
2022/07/20 12:53:41;;;;;;;17.38;9.85;;;;;;;;;;4958401;28;20553;-82
2022/07/20 12:56:08;;;;;;;16.85;9.68;;;;;;;;;;4964799;28;20039;-83
2022/07/20 12:58:33;;;;;;;15.45;9.68;;;;;;;;;;4960930;28;20031;-83
2022/07/20 13:00:58;;;;;;;16.20;10.20;;;;;;;;;;4968408;28;20023;-83
2022/07/20 13:03:24;;;;;;;16.27;10.02;;;;;;;;;;4962788;28;20039;-83
2022/07/20 13:05:51;;;;;;;14.93;9.60;;;;;;;;;;4964750;28;20659;-82
2022/07/20 13:08:16;;;;;;;16.15;9.80;;;;;;;;;;4961652;28;20043;-82
2022/07/20 13:10:42;;;;;;;17.08;9.45;;;;;;;;;;4965343;28;20026;-81
2022/07/20 13:13:07;;;;;;;17.45;9.90;;;;;;;;;;4966656;28;20019;-82
2022/07/20 13:15:32;;;;;;;14.80;9.48;;;;;;;;;;4965496;28;20039;-82
2022/07/20 13:17:58;;;;;;;16.42;10.30;;;;;;;;;;4970348;28;20093;-82
2022/07/20 13:20:24;;;;;;;15.23;9.93;;;;;;;;;;4968827;28;20062;-82
2022/07/20 13:22:50;;;;;;;16.23;9.82;;;;;;;;;;4966831;28;20178;-82
2022/07/20 13:25:15;;;;;;;15.80;10.50;;;;;;;;;;4974169;28;20042;-83
2022/07/20 13:27:41;;;;;;;16.58;9.88;;;;;;;;;;4963516;28;20060;-82
2022/07/20 13:30:06;;;;;;;18.25;10.13;;;;;;;;;;4981534;28;20042;-82
2022/07/20 13:32:32;;;;;;;18.75;10.60;;;;;;;;;;4966395;28;20031;-82
2022/07/20 13:34:57;;;;;;;14.60;9.93;;;;;;;;;;4965630;28;20050;-83
2022/07/20 13:37:23;;;;;;;17.98;10.18;;;;;;;;;;4964941;28;20444;-82
2022/07/20 13:39:48;;;;;;;17.25;10.18;;;;;;;;;;4964745;28;20059;-84
2022/07/20 13:42:14;;;;;;;19.35;10.63;;;;;;;;;;4986020;28;20058;-84
2022/07/20 13:44:39;;;;;;;15.95;10.18;;;;;;;;;;4965562;28;20038;-84
2022/07/20 13:47:06;;;;;;;18.92;10.55;;;;;;;;;;4960625;28;20652;-84
2022/07/20 13:49:32;;;;;;;15.57;10.63;;;;;;;;;;4976085;28;20034;-84
2022/07/20 13:51:57;;;;;;;14.80;10.02;;;;;;;;;;4964596;28;20018;-84
2022/07/20 13:54:22;;;;;;;16.00;10.40;;;;;;;;;;4964644;28;20035;-84
2022/07/20 13:56:48;;;;;;;16.95;10.23;;;;;;;;;;4962221;28;20058;-84
2022/07/20 13:59:13;;;;;;;16.23;10.70;;;;;;;;;;4978063;28;20112;-83
2022/07/20 14:01:42;;;;;;;19.58;11.73;;;;;;;;;;4961700;28;20166;-84
2022/07/20 14:04:12;;;;;;;16.92;10.80;;;;;;;;;;4963907;28;20473;-83
2022/07/20 14:06:39;;;;;;;16.35;10.75;;;;;;;;;;4961927;28;20038;-83
2022/07/20 14:09:05;;;;;;;16.23;10.93;;;;;;;;;;4963826;28;20076;-83
2022/07/20 14:11:30;;;;;;;15.90;11.00;;;;;;;;;;4963590;28;20502;-83
2022/07/20 14:13:56;;;;;;;18.42;11.35;;;;;;;;;;4963497;28;20437;-83
2022/07/20 14:16:21;;;;;;;18.88;10.15;;;;;;;;;;4981342;28;21359;-82
2022/07/20 14:18:47;;;;;;;19.27;11.68;;;;;;;;;;4963826;28;20035;-83
2022/07/20 14:21:14;;;;;;;19.55;11.60;;;;;;;;;;4966218;28;20066;-84